aviador You're here:

KDTS Decoded Metar

DESTIN in FL, USA
Report Time2017-12-11 02:53:00
UTC Time2017-12-11 03:51:04
Flight Rules vfr VFR
WindCalm
Visibility9999 m
Phenomena:N/A
Clouds:N/A
Expected CloudBase > 2,800 ft AGL from Temp-Dew spread
CeilingNone
Temp09°C (ISA -6)
Dew Point02°C (62% RH)
AAT7.3°C
QNH1027 hPa
Density Alt-1,076 ft
Elevation16 ft
Report Wrong Elevation
Raw Report
KDTS 110253Z 00000KT 10SM CLR 09/02 A3033 RMK AO2 SLP269 T00940022
58000=

Extra information for KDTS:More info

Metar Taf Metar & Taf Last 4 Metars F.Rules Stats Wind Profile Meteogram Temp Stats Airport Information Weather charts Add Link Nearby VenuesMetar ALERT Operation Metar Decoded Social comments

AIRNAV info for KDTS